Time;durP1;ratioP1;P1;durP2;ratioP2;P2;SDS_P1;SDS_P2;PMS_P1;PMS_P2;Temp;Humidity;BMP_temperature;BMP_pressure;BME280_temperature;BME280_humidity;BME280_pressure;Samples;Min_cycle;Max_cycle;Signal;HPM_P1;HPM_P2
2023/07/24 00:00:16;;;;;;;5.15;3.63;;;;;;;14.53;100.00;98774.19;5071396;28;20083;-36
2023/07/24 00:02:44;;;;;;;4.53;3.28;;;;;;;14.54;100.00;98783.72;5069701;28;20135;-38
2023/07/24 00:05:12;;;;;;;5.32;3.15;;;;;;;14.65;100.00;98810.88;5068258;28;20155;-37
2023/07/24 00:07:38;;;;;;;4.85;3.72;;;;;;;14.59;100.00;98808.66;5067452;28;20119;-36
2023/07/24 00:10:04;;;;;;;5.25;3.75;;;;;;;14.46;100.00;98797.28;5070749;28;20143;-37
2023/07/24 00:12:31;;;;;;;4.70;3.42;;;;;;;14.35;100.00;98778.78;5070056;28;20040;-37
2023/07/24 00:14:57;;;;;;;6.55;3.10;;;;;;;14.58;100.00;98811.34;5071153;28;20055;-36
2023/07/24 00:17:23;;;;;;;5.65;3.50;;;;;;;14.52;100.00;98807.34;5070430;28;20519;-37
2023/07/24 00:19:49;;;;;;;5.50;3.50;;;;;;;14.52;100.00;98815.22;5053035;28;20048;-37
2023/07/24 00:22:15;;;;;;;6.32;3.60;;;;;;;14.50;100.00;98808.41;5070875;28;20051;-37
2023/07/24 00:24:41;;;;;;;4.38;3.63;;;;;;;14.48;100.00;98810.28;5069335;28;20484;-37
2023/07/24 00:27:07;;;;;;;6.60;3.05;;;;;;;14.45;100.00;98808.69;5069080;28;20586;-37
2023/07/24 00:29:33;;;;;;;4.75;3.30;;;;;;;14.31;100.00;98785.16;5070564;28;20032;-37
2023/07/24 00:31:59;;;;;;;6.22;3.60;;;;;;;14.50;100.00;98808.41;5069188;28;20077;-37
2023/07/24 00:34:24;;;;;;;5.47;3.25;;;;;;;14.48;100.00;98802.44;5067989;28;20153;-36
2023/07/24 00:36:50;;;;;;;7.35;3.20;;;;;;;14.43;100.00;98799.28;5070800;28;20119;-37
2023/07/24 00:39:16;;;;;;;6.82;3.22;;;;;;;14.40;100.00;98808.13;5068006;28;20607;-37
2023/07/24 00:41:43;;;;;;;8.43;3.38;;;;;;;14.37;100.00;98803.13;5065538;28;20417;-36
2023/07/24 00:44:08;;;;;;;5.60;3.45;;;;;;;14.21;100.00;98779.69;5069075;28;20044;-37
2023/07/24 00:46:35;;;;;;;4.40;3.42;;;;;;;14.36;100.00;98804.88;5047672;28;20471;-37
2023/07/24 00:49:02;;;;;;;8.02;3.80;;;;;;;14.33;100.00;98802.44;5032583;28;20052;-39
2023/07/24 00:51:31;;;;;;;5.43;3.60;;;;;;;14.32;100.00;98799.91;5067662;28;20040;-37
2023/07/24 00:54:02;;;;;;;4.63;3.22;;;;;;;14.32;100.00;98808.59;5064347;28;20040;-37
2023/07/24 00:56:30;;;;;;;4.97;3.50;;;;;;;14.17;100.00;98782.59;5017312;28;20052;-37
2023/07/24 00:58:56;;;;;;;5.88;3.72;;;;;;;14.36;100.00;98809.25;5035616;28;20108;-37
2023/07/24 01:01:22;;;;;;;5.03;3.40;;;;;;;14.30;100.00;98807.00;5070300;28;20086;-37
2023/07/24 01:03:49;;;;;;;4.40;3.47;;;;;;;14.26;100.00;98803.75;5069769;28;20045;-37
2023/07/24 01:06:15;;;;;;;8.05;3.60;;;;;;;14.23;100.00;98811.81;5050569;28;20090;-37
2023/07/24 01:08:40;;;;;;;4.88;3.83;;;;;;;14.18;100.00;98806.03;5068440;28;20040;-37
2023/07/24 01:11:19;;;;;;;4.95;3.80;;;;;;;14.16;100.00;98799.22;5047013;28;20048;-37
2023/07/24 01:13:56;;;;;;;6.63;3.15;;;;;;;14.13;100.00;98810.69;5048631;28;20064;-37
2023/07/24 01:16:23;;;;;;;6.18;3.50;;;;;;;14.11;100.00;98804.72;5053807;28;20123;-36
2023/07/24 01:18:52;;;;;;;8.45;3.50;;;;;;;14.09;100.00;98806.59;5051793;28;20115;-37
2023/07/24 01:21:20;;;;;;;4.78;3.40;;;;;;;14.08;100.00;98804.91;5068385;28;20040;-37
2023/07/24 01:24:14;;;;;;;6.50;3.40;;;;;;;14.10;100.00;98800.44;5034592;28;20486;-38
2023/07/24 01:26:40;;;;;;;4.28;3.45;;;;;;;14.09;100.00;98796.13;5040917;28;20802;-36
2023/07/24 01:29:06;;;;;;;4.40;3.38;;;;;;;14.11;100.00;98782.97;5048062;28;20045;-37
2023/07/24 01:31:31;;;;;;;5.07;3.30;;;;;;;14.12;100.00;98788.13;5047201;28;20040;-37
2023/07/24 01:33:57;;;;;;;8.38;3.40;;;;;;;13.99;100.00;98766.28;5065378;28;20044;-37
2023/07/24 01:36:23;;;;;;;9.57;3.70;;;;;;;14.10;100.00;98783.91;5050014;28;20524;-37
2023/07/24 01:38:50;;;;;;;4.78;3.38;;;;;;;14.19;100.00;98788.53;5064767;28;20055;-37
2023/07/24 01:41:16;;;;;;;6.13;3.95;;;;;;;14.23;100.00;98793.50;5029213;28;20040;-37
2023/07/24 01:43:43;;;;;;;8.93;4.20;;;;;;;14.23;100.00;98797.91;5046800;28;20047;-37
2023/07/24 01:46:09;;;;;;;7.90;4.43;;;;;;;14.04;100.00;98769.44;5064366;28;20118;-37
2023/07/24 01:48:35;;;;;;;10.25;3.92;;;;;;;14.22;100.00;98804.06;5068247;28;20127;-37
2023/07/24 01:51:01;;;;;;;10.73;4.13;;;;;;;14.19;100.00;98788.53;5069185;28;20468;-37
2023/07/24 01:53:27;;;;;;;7.78;4.38;;;;;;;14.25;100.00;98803.84;5069082;28;20423;-35
2023/07/24 01:55:53;;;;;;;8.75;4.20;;;;;;;14.22;100.00;98794.44;5065421;28;20048;-37
2023/07/24 01:58:19;;;;;;;10.18;3.92;;;;;;;14.24;100.00;98797.78;5066851;28;20120;-36
2023/07/24 02:00:45;;;;;;;7.22;4.30;;;;;;;14.31;100.00;98799.06;5051086;28;20062;-36
2023/07/24 02:03:11;;;;;;;4.13;3.58;;;;;;;14.35;100.00;98804.94;5068950;28;20568;-36
2023/07/24 02:05:37;;;;;;;6.03;3.58;;;;;;;14.44;100.00;98793.94;5066769;28;20032;-36
2023/07/24 02:08:03;;;;;;;5.72;3.20;;;;;;;14.49;100.00;98789.25;5067610;28;20424;-37
2023/07/24 02:10:29;;;;;;;3.50;2.78;;;;;;;14.51;100.00;98794.38;5066371;28;20044;-37
2023/07/24 02:12:55;;;;;;;5.53;3.20;;;;;;;14.50;100.00;98809.22;5067627;28;20150;-36
2023/07/24 02:15:21;;;;;;;5.50;3.33;;;;;;;14.39;100.00;98777.72;5063951;28;20036;-36
2023/07/24 02:17:47;;;;;;;3.50;3.13;;;;;;;14.57;100.00;98805.28;5084377;28;20066;-37
2023/07/24 02:20:13;;;;;;;4.95;3.50;;;;;;;14.50;100.00;98780.44;5068537;28;20139;-36
2023/07/24 02:22:42;;;;;;;5.57;3.60;;;;;;;14.68;100.00;98801.97;5051270;28;20040;-37
2023/07/24 02:25:08;;;;;;;3.75;3.20;;;;;;;14.72;100.00;98800.84;5066752;28;20060;-37
2023/07/24 02:27:34;;;;;;;6.25;3.17;;;;;;;14.70;100.00;98797.50;5049537;28;20491;-37
2023/07/24 02:30:01;;;;;;;4.75;2.80;;;;;;;14.72;100.00;98806.06;5068557;28;20056;-37
2023/07/24 02:32:27;;;;;;;8.43;3.60;;;;;;;14.70;100.00;98811.41;5058373;28;20513;-37
2023/07/24 02:34:53;;;;;;;6.32;3.03;;;;;;;14.72;100.00;98811.28;5054807;28;20094;-37
2023/07/24 02:37:19;;;;;;;7.43;3.30;;;;;;;14.76;100.00;98807.53;5050069;28;20036;-38
2023/07/24 02:39:45;;;;;;;4.22;2.83;;;;;;;14.76;100.00;98804.91;5065494;28;20059;-38
2023/07/24 02:42:11;;;;;;;9.00;3.15;;;;;;;14.79;100.00;98802.13;5067885;28;20033;-36
2023/07/24 02:44:37;;;;;;;5.30;2.80;;;;;;;14.78;100.00;98801.28;5067524;28;20089;-37
2023/07/24 02:47:04;;;;;;;4.22;2.50;;;;;;;14.80;100.00;98798.56;5050454;28;20044;-38
2023/07/24 02:49:30;;;;;;;9.43;3.00;;;;;;;14.78;100.00;98803.88;5050381;28;20045;-38
2023/07/24 02:51:55;;;;;;;3.13;2.55;;;;;;;14.56;100.00;98766.97;5066485;28;20047;-37
2023/07/24 02:54:22;;;;;;;5.50;2.80;;;;;;;14.67;100.00;98798.50;5056589;28;20595;-38
2023/07/24 02:56:47;;;;;;;6.00;2.70;;;;;;;14.48;100.00;98771.03;5067666;28;20138;-38
2023/07/24 02:59:13;;;;;;;6.20;2.75;;;;;;;14.74;100.00;98804.19;5067230;28;20504;-36
2023/07/24 03:01:39;;;;;;;3.72;2.60;;;;;;;14.75;100.00;98800.66;5066624;28;20044;-37
2023/07/24 03:04:05;;;;;;;2.80;2.30;;;;;;;14.67;100.00;98782.81;5053298;28;20056;-37
2023/07/24 03:06:32;;;;;;;5.15;1.67;;;;;;;14.67;100.00;98774.97;5055492;28;20032;-37
2023/07/24 03:08:58;;;;;;;6.60;2.50;;;;;;;14.81;100.00;98787.16;5066932;28;20126;-37
2023/07/24 03:11:24;;;;;;;4.05;2.60;;;;;;;14.87;100.00;98796.38;5066229;28;20052;-38
2023/07/24 03:13:50;;;;;;;3.80;2.58;;;;;;;14.95;100.00;98796.72;5063656;28;20582;-37
2023/07/24 03:16:20;;;;;;;3.50;2.50;;;;;;;15.04;100.00;98801.34;5066884;28;20040;-36
2023/07/24 03:18:47;;;;;;;3.30;2.65;;;;;;;15.05;100.00;98805.63;5065512;28;20028;-37
2023/07/24 03:21:13;;;;;;;5.13;2.33;;;;;;;15.17;100.00;98810.91;5048408;28;20028;-36
2023/07/24 03:23:39;;;;;;;4.03;2.30;;;;;;;15.22;100.00;98814.06;5061837;28;20052;-37
2023/07/24 03:26:05;;;;;;;3.65;2.60;;;;;;;15.17;100.00;98795.19;5036869;28;20179;-37
2023/07/24 03:28:30;;;;;;;4.03;2.13;;;;;;;15.49;100.00;98826.22;5047964;28;20101;-37
2023/07/24 03:30:56;;;;;;;4.70;2.40;;;;;;;15.65;100.00;98822.47;5029151;28;20175;-36
2023/07/24 03:33:22;;;;;;;4.35;2.80;;;;;;;15.71;100.00;98825.59;5058635;28;20044;-37
2023/07/24 03:35:49;;;;;;;4.82;2.60;;;;;;;15.82;100.00;98823.09;5052710;28;20028;-38
2023/07/24 03:38:14;;;;;;;7.68;2.40;;;;;;;15.86;100.00;98814.09;5070243;28;20428;-36
2023/07/24 03:40:40;;;;;;;5.50;2.40;;;;;;;15.84;100.00;98818.59;5070431;28;20416;-37
2023/07/24 03:43:06;;;;;;;7.25;2.85;;;;;;;15.96;100.00;98817.75;5046441;28;20129;-37
2023/07/24 03:45:32;;;;;;;4.00;2.65;;;;;;;15.94;100.00;98814.38;5052172;28;20146;-38
2023/07/24 03:47:58;;;;;;;4.20;2.50;;;;;;;15.91;100.00;98818.03;5071599;28;20516;-37
2023/07/24 03:50:23;;;;;;;3.22;2.13;;;;;;;15.94;100.00;98809.97;5069520;28;20048;-38
2023/07/24 03:52:49;;;;;;;3.30;2.20;;;;;;;15.99;100.00;98813.09;5069686;28;20040;-36
2023/07/24 03:55:15;;;;;;;4.65;2.50;;;;;;;15.92;99.65;98785.63;5052795;28;20060;-36
2023/07/24 03:57:41;;;;;;;5.85;2.42;;;;;;;16.09;99.59;98805.41;5071043;28;20041;-36
2023/07/24 04:00:07;;;;;;;4.38;2.25;;;;;;;16.18;99.47;98810.00;5070160;28;20041;-38
2023/07/24 04:02:39;;;;;;;7.80;2.47;;;;;;;15.94;98.32;98788.16;5070741;28;20040;-36
2023/07/24 04:05:05;;;;;;;4.10;2.35;;;;;;;16.09;97.76;98814.13;5070924;28;20504;-37
2023/07/24 04:07:31;;;;;;;5.95;2.45;;;;;;;16.07;97.98;98796.81;5064681;28;20087;-37
2023/07/24 04:09:57;;;;;;;4.85;2.70;;;;;;;16.20;96.55;98818.63;5051093;28;20136;-36
2023/07/24 04:12:23;;;;;;;6.55;2.35;;;;;;;16.16;96.48;98819.78;5046575;28;20098;-37
2023/07/24 04:14:50;;;;;;;7.90;2.40;;;;;;;16.19;96.38;98813.47;5049199;28;20044;-37
2023/07/24 04:17:16;;;;;;;3.90;2.53;;;;;;;16.26;95.28;98823.44;5064689;28;20051;-37
2023/07/24 04:19:42;;;;;;;5.05;2.75;;;;;;;16.10;94.10;98820.22;5051470;28;20037;-37
2023/07/24 04:22:07;;;;;;;5.45;2.45;;;;;;;15.75;93.81;98775.53;5055490;28;20512;-37
2023/07/24 04:24:33;;;;;;;6.13;2.70;;;;;;;15.93;93.56;98817.94;5047553;28;20055;-37
2023/07/24 04:26:59;;;;;;;3.40;2.58;;;;;;;15.98;92.64;98819.28;5035947;28;20043;-36
2023/07/24 04:29:26;;;;;;;6.97;2.30;;;;;;;15.99;92.60;98818.34;5069564;28;20037;-37
2023/07/24 04:31:52;;;;;;;4.43;2.20;;;;;;;16.01;91.63;98816.47;5069668;28;20044;-38
2023/07/24 04:34:18;;;;;;;4.28;2.47;;;;;;;16.01;91.23;98821.72;5067294;28;20048;-37
2023/07/24 04:36:44;;;;;;;4.68;2.50;;;;;;;15.92;90.91;98796.13;5062528;28;20045;-36
2023/07/24 04:39:10;;;;;;;6.18;3.00;;;;;;;16.13;90.08;98806.03;5068703;28;20042;-37
2023/07/24 04:41:36;;;;;;;4.40;2.85;;;;;;;16.28;89.47;98803.16;5070336;28;20036;-38
2023/07/24 04:44:01;;;;;;;3.67;2.20;;;;;;;16.39;88.59;98811.09;5048133;28;20052;-37
2023/07/24 04:46:27;;;;;;;4.68;2.30;;;;;;;16.48;87.45;98804.38;5049002;28;20048;-37
2023/07/24 04:48:53;;;;;;;3.22;2.45;;;;;;;16.59;85.78;98801.81;5058949;28;20063;-36
2023/07/24 04:51:19;;;;;;;4.90;2.50;;;;;;;16.66;85.13;98784.69;5052434;28;20087;-37
2023/07/24 04:53:45;;;;;;;4.72;2.40;;;;;;;16.92;83.88;98807.22;5065691;28;20107;-37
2023/07/24 04:56:11;;;;;;;4.55;2.35;;;;;;;16.99;82.85;98801.50;5068268;28;20056;-38
2023/07/24 04:58:37;;;;;;;5.68;2.58;;;;;;;17.13;82.23;98803.94;5069387;28;20052;-37
2023/07/24 05:01:04;;;;;;;3.90;2.53;;;;;;;17.26;81.12;98789.78;5051355;28;20566;-37
2023/07/24 05:03:30;;;;;;;4.25;2.47;;;;;;;17.34;80.10;98799.69;5068138;28;20045;-38
2023/07/24 05:05:56;;;;;;;3.45;2.00;;;;;;;17.23;79.58;98808.38;5069776;28;20041;-38
2023/07/24 05:08:23;;;;;;;5.40;3.15;;;;;;;17.10;79.22;98807.66;5067739;28;20474;-38
2023/07/24 05:10:55;;;;;;;3.67;2.40;;;;;;;17.01;78.86;98802.25;5068955;28;20044;-37
2023/07/24 05:13:21;;;;;;;3.13;2.20;;;;;;;17.20;78.75;98797.28;5066952;28;20044;-38
2023/07/24 05:15:46;;;;;;;6.05;2.50;;;;;;;17.50;78.34;98808.09;5047283;28;20136;-37
2023/07/24 05:18:12;;;;;;;4.45;2.70;;;;;;;17.81;77.62;98801.31;5068289;28;20119;-37
2023/07/24 05:20:38;;;;;;;4.70;2.50;;;;;;;18.12;76.46;98802.38;5063868;28;20059;-37
2023/07/24 05:23:05;;;;;;;3.65;2.28;;;;;;;18.43;75.08;98803.41;5050382;28;20051;-39
2023/07/24 05:25:31;;;;;;;3.33;2.30;;;;;;;18.25;73.45;98763.63;5050761;28;20521;-36
2023/07/24 05:27:57;;;;;;;3.63;2.28;;;;;;;18.66;73.05;98799.78;5060156;28;20049;-37
2023/07/24 05:30:23;;;;;;;5.43;2.58;;;;;;;18.77;71.64;98798.91;5066071;28;20045;-38
2023/07/24 05:32:49;;;;;;;4.50;2.25;;;;;;;18.89;71.08;98790.81;5065595;28;20068;-38
2023/07/24 05:35:14;;;;;;;6.65;2.17;;;;;;;18.72;69.81;98799.28;5065806;28;20538;-38
2023/07/24 05:37:40;;;;;;;2.65;1.83;;;;;;;18.67;69.56;98793.56;5067512;28;20048;-37
2023/07/24 05:40:07;;;;;;;5.07;2.63;;;;;;;18.78;69.16;98800.59;5067299;28;20054;-40
2023/07/24 05:42:33;;;;;;;5.97;2.58;;;;;;;18.63;69.36;98797.41;5066135;28;20040;-40
2023/07/24 05:44:59;;;;;;;5.25;2.20;;;;;;;18.53;69.41;98796.44;5067296;28;20041;-37
2023/07/24 05:47:25;;;;;;;4.03;2.17;;;;;;;18.61;69.54;98794.91;5069208;28;20050;-36
2023/07/24 05:49:50;;;;;;;5.15;2.28;;;;;;;18.51;69.21;98767.63;5083521;28;20053;-37
2023/07/24 05:52:16;;;;;;;5.13;2.35;;;;;;;18.61;69.18;98787.00;5067975;28;20043;-37
2023/07/24 05:54:42;;;;;;;5.90;2.60;;;;;;;18.76;69.18;98792.81;5062147;28;20098;-42
2023/07/24 05:57:08;;;;;;;7.97;2.53;;;;;;;18.89;68.80;98795.28;5064718;28;20066;-38
2023/07/24 05:59:34;;;;;;;5.55;2.30;;;;;;;18.77;68.39;98794.47;5057103;28;20072;-38
2023/07/24 06:02:00;;;;;;;4.50;2.35;;;;;;;18.80;68.19;98796.84;5055583;28;20045;-38
2023/07/24 06:04:26;;;;;;;6.30;2.50;;;;;;;18.66;68.31;98797.16;5065658;28;20048;-37
2023/07/24 06:06:52;;;;;;;8.05;2.65;;;;;;;18.57;68.53;98792.66;5065663;28;20540;-37
2023/07/24 06:09:18;;;;;;;3.88;2.10;;;;;;;18.75;68.20;98793.75;5066633;28;20040;-37
2023/07/24 06:11:43;;;;;;;4.28;2.38;;;;;;;18.61;67.58;98773.84;5067098;28;20424;-37
2023/07/24 06:14:09;;;;;;;4.25;2.28;;;;;;;18.71;67.43;98799.41;5066525;28;20046;-36
2023/07/24 06:16:35;;;;;;;5.15;2.20;;;;;;;18.36;67.61;98765.41;5068319;28;20052;-36
2023/07/24 06:19:01;;;;;;;3.90;2.40;;;;;;;18.41;67.73;98786.91;5056345;28;20073;-36
2023/07/24 06:21:26;;;;;;;5.70;2.00;;;;;;;18.48;67.82;98802.06;5089008;28;20042;-35
2023/07/24 06:23:52;;;;;;;3.22;1.92;;;;;;;18.60;67.90;98805.53;5080187;28;20040;-36
2023/07/24 06:26:18;;;;;;;5.07;2.33;;;;;;;18.63;67.51;98807.94;5068700;28;20036;-36
2023/07/24 06:28:43;;;;;;;5.57;2.50;;;;;;;18.56;67.89;98802.34;5067267;28;20078;-37
2023/07/24 06:31:09;;;;;;;5.88;2.05;;;;;;;18.53;68.57;98799.91;5078641;28;20089;-38
2023/07/24 06:33:35;;;;;;;4.63;1.88;;;;;;;18.74;68.46;98809.69;5067974;28;20040;-36
2023/07/24 06:36:01;;;;;;;12.18;2.10;;;;;;;18.76;68.09;98807.78;5070497;28;20059;-36
2023/07/24 06:38:27;;;;;;;4.35;2.03;;;;;;;18.52;67.38;98774.56;5078273;28;20036;-37
2023/07/24 06:40:53;;;;;;;2.72;1.80;;;;;;;18.66;67.18;98794.53;5066582;28;20043;-37
2023/07/24 06:43:18;;;;;;;4.38;1.80;;;;;;;18.68;67.29;98792.63;5066883;28;20575;-37
2023/07/24 06:45:44;;;;;;;5.10;1.88;;;;;;;18.83;67.35;98785.25;5068903;28;20044;-36
2023/07/24 06:48:10;;;;;;;6.88;1.92;;;;;;;18.90;67.10;98810.94;5052513;28;20036;-36
2023/07/24 06:50:36;;;;;;;3.95;1.92;;;;;;;18.97;66.68;98812.13;5066717;28;20041;-37
2023/07/24 06:53:02;;;;;;;5.25;1.83;;;;;;;18.87;66.75;98791.94;5068362;28;20086;-36
2023/07/24 06:55:28;;;;;;;4.00;1.70;;;;;;;18.86;66.88;98814.78;5067151;28;20508;-36
2023/07/24 06:57:54;;;;;;;5.32;2.05;;;;;;;18.93;67.19;98813.34;5068044;28;20109;-44
2023/07/24 07:00:20;;;;;;;2.83;1.95;;;;;;;19.01;67.42;98810.88;5064603;28;20098;-42
2023/07/24 07:02:45;;;;;;;6.18;2.20;;;;;;;18.91;67.57;98806.50;5062862;28;20049;-44
2023/07/24 07:05:11;;;;;;;6.28;2.03;;;;;;;18.93;68.18;98810.69;5067104;28;20131;-44
2023/07/24 07:07:39;;;;;;;5.68;1.83;;;;;;;18.88;68.29;98804.97;5065957;28;20094;-45
2023/07/24 07:10:05;;;;;;;3.60;1.90;;;;;;;18.73;68.41;98773.81;5070297;28;20032;-45
2023/07/24 07:12:32;;;;;;;4.78;1.77;;;;;;;18.90;67.73;98804.84;5029276;28;20044;-43
2023/07/24 07:14:57;;;;;;;2.83;1.50;;;;;;;18.88;66.33;98807.63;5070172;28;20041;-38
2023/07/24 07:17:23;;;;;;;4.65;2.00;;;;;;;18.88;66.19;98802.34;5069592;28;20097;-37
2023/07/24 07:19:49;;;;;;;4.60;1.70;;;;;;;19.08;65.37;98807.75;5068237;28;20466;-37
2023/07/24 07:22:15;;;;;;;4.45;1.70;;;;;;;18.96;64.88;98778.81;5066172;28;20047;-37
2023/07/24 07:24:43;;;;;;;2.95;1.50;;;;;;;19.21;64.63;98797.88;5070196;28;20040;-36
2023/07/24 07:27:09;;;;;;;2.88;1.60;;;;;;;19.17;64.37;98789.38;5069933;28;20036;-37
2023/07/24 07:29:34;;;;;;;1.80;1.30;;;;;;;19.03;64.57;98777.38;5035095;28;20043;-37
2023/07/24 07:32:00;;;;;;;2.30;1.50;;;;;;;19.11;64.76;98797.78;5031664;28;20072;-37
2023/07/24 07:34:26;;;;;;;3.40;1.15;;;;;;;19.08;64.47;98784.88;5053017;28;20036;-37
2023/07/24 07:36:52;;;;;;;3.95;1.20;;;;;;;19.27;64.45;98800.81;5057699;28;20051;-36
2023/07/24 07:39:18;;;;;;;2.40;1.20;;;;;;;19.15;63.52;98793.94;5070933;28;20058;-37
2023/07/24 07:41:44;;;;;;;2.05;1.33;;;;;;;18.98;63.80;98789.25;5066532;28;20040;-37
2023/07/24 07:44:09;;;;;;;2.08;1.38;;;;;;;18.76;63.82;98797.22;5046122;28;20087;-38
2023/07/24 07:46:35;;;;;;;1.88;1.27;;;;;;;18.35;64.64;98753.19;5066919;28;20044;-37
2023/07/24 07:49:01;;;;;;;3.78;1.58;;;;;;;18.52;65.88;98789.53;5071029;28;20089;-38
2023/07/24 07:51:27;;;;;;;2.55;1.67;;;;;;;18.48;66.68;98798.59;5069080;28;20683;-37
2023/07/24 07:53:53;;;;;;;2.60;1.65;;;;;;;18.42;67.42;98760.44;5067279;28;20040;-39
2023/07/24 07:56:19;;;;;;;7.45;1.80;;;;;;;18.57;67.93;98784.75;5049702;28;20076;-37
2023/07/24 07:58:45;;;;;;;4.22;1.95;;;;;;;18.52;68.32;98790.34;5062079;28;20036;-37
2023/07/24 08:01:10;;;;;;;2.60;1.52;;;;;;;18.37;69.35;98794.19;5068213;28;20511;-37
2023/07/24 08:03:36;;;;;;;3.53;2.00;;;;;;;18.17;69.44;98773.91;5068226;28;20563;-41
2023/07/24 08:06:02;;;;;;;5.30;2.10;;;;;;;18.08;69.71;98759.72;5060994;28;20044;-37
2023/07/24 08:08:28;;;;;;;4.60;2.00;;;;;;;18.36;69.98;98773.28;5065374;28;20796;-37
2023/07/24 08:10:54;;;;;;;3.38;2.10;;;;;;;18.46;70.22;98779.47;5075019;28;20129;-37
2023/07/24 08:13:20;;;;;;;4.28;2.35;;;;;;;18.61;70.17;98781.75;5065648;28;20044;-37
2023/07/24 08:15:45;;;;;;;8.35;2.53;;;;;;;18.57;70.58;98785.59;5067472;28;20064;-36
2023/07/24 08:18:12;;;;;;;2.78;1.75;;;;;;;18.49;71.13;98787.13;5075244;28;20039;-36
2023/07/24 08:20:41;;;;;;;3.10;2.15;;;;;;;18.39;71.66;98784.41;5071380;28;20465;-37
2023/07/24 08:23:07;;;;;;;3.75;2.10;;;;;;;18.05;72.67;98757.34;5070943;28;20037;-37
2023/07/24 08:25:32;;;;;;;6.85;1.77;;;;;;;17.89;73.79;98761.28;5074299;28;20054;-37
2023/07/24 08:27:58;;;;;;;3.92;1.63;;;;;;;17.57;74.85;98769.03;5069800;28;20036;-37
2023/07/24 08:30:24;;;;;;;4.20;1.92;;;;;;;17.49;75.65;98792.44;5066123;28;20106;-37
2023/07/24 08:32:51;;;;;;;4.15;2.10;;;;;;;17.15;77.85;98760.88;5064472;28;20059;-38
2023/07/24 08:35:17;;;;;;;3.33;2.22;;;;;;;16.89;79.18;98730.47;5065758;28;20055;-36
2023/07/24 08:37:44;;;;;;;6.38;1.95;;;;;;;17.02;80.80;98761.88;5045254;28;20044;-38
2023/07/24 08:40:10;;;;;;;3.97;1.90;;;;;;;17.11;81.60;98759.44;5068736;28;20091;-37
2023/07/24 08:42:40;;;;;;;5.45;2.13;;;;;;;17.32;81.67;98785.84;5033724;28;20126;-36
2023/07/24 08:45:12;;;;;;;7.28;2.63;;;;;;;17.40;82.09;98762.44;5064391;28;20028;-37
2023/07/24 08:47:41;;;;;;;3.67;2.08;;;;;;;17.53;81.70;98788.63;5061533;28;20037;-38
2023/07/24 08:50:11;;;;;;;5.25;2.55;;;;;;;17.41;81.20;98781.69;5052158;28;20044;-37
2023/07/24 08:52:40;;;;;;;6.18;2.83;;;;;;;17.46;81.48;98782.16;5068325;28;20463;-37
2023/07/24 08:55:06;;;;;;;;;;;;;;;17.54;81.82;98775.34;5053656;28;20113;-38
2023/07/24 08:57:31;;;;;;;5.90;2.70;;;;;;;17.60;82.46;98777.53;5050357;28;20384;-38
2023/07/24 08:59:58;;;;;;;5.25;2.33;;;;;;;17.83;82.33;98775.75;5068202;28;20036;-38
2023/07/24 09:02:24;;;;;;;9.65;2.58;;;;;;;18.09;81.64;98773.69;5065179;28;20496;-37
2023/07/24 09:04:50;;;;;;;4.38;2.35;;;;;;;18.20;81.27;98784.22;5066096;28;20048;-38
2023/07/24 09:07:16;;;;;;;7.88;2.70;;;;;;;18.11;80.13;98777.88;5067788;28;20078;-38
2023/07/24 09:09:42;;;;;;;8.43;2.80;;;;;;;18.36;79.66;98768.03;5065692;28;20028;-38
2023/07/24 09:12:08;;;;;;;6.30;2.50;;;;;;;18.33;78.07;98741.94;5060313;28;20040;-37
2023/07/24 09:14:34;;;;;;;5.53;3.10;;;;;;;18.57;77.31;98732.94;5065723;28;20577;-38
2023/07/24 09:17:08;;;;;;;4.95;2.33;;;;;;;18.92;76.36;98737.06;5049162;28;20072;-37
2023/07/24 09:19:34;;;;;;;5.53;2.90;;;;;;;19.16;76.00;98752.59;5065748;28;20029;-37
2023/07/24 09:22:13;;;;;;;9.38;3.15;;;;;;;19.10;75.55;98753.16;5049255;28;20146;-37
2023/07/24 09:25:08;;;;;;;;;;;;;;;19.29;75.26;98753.25;5076586;28;20543;-36
2023/07/24 09:27:34;;;;;;;5.75;3.13;;;;;;;19.84;74.05;98738.81;5048919;28;19926;-38
2023/07/24 09:30:00;;;;;;;6.88;3.97;;;;;;;20.07;72.56;98724.44;5065813;28;20045;-37
2023/07/24 09:32:27;;;;;;;8.55;3.80;;;;;;;20.07;71.37;98736.81;5063931;28;20068;-37
2023/07/24 09:34:56;;;;;;;9.75;3.80;;;;;;;20.03;71.34;98736.25;5064548;28;20033;-38
2023/07/24 09:37:30;;;;;;;7.97;3.65;;;;;;;19.96;71.40;98734.25;5063211;28;20051;-37
2023/07/24 09:39:55;;;;;;;7.07;3.50;;;;;;;19.74;71.59;98722.97;5069285;28;20146;-38
2023/07/24 09:42:35;;;;;;;7.10;4.03;;;;;;;19.50;72.45;98727.72;5055965;28;20082;-37
2023/07/24 09:45:02;;;;;;;8.55;4.10;;;;;;;19.40;72.99;98717.13;5083248;28;20051;-38
2023/07/24 09:47:30;;;;;;;6.25;3.10;;;;;;;19.32;73.43;98709.00;5066104;28;20512;-37
2023/07/24 09:49:55;;;;;;;11.27;3.63;;;;;;;19.01;73.64;98691.50;5059931;28;20124;-38
2023/07/24 09:52:22;;;;;;;8.45;3.35;;;;;;;18.80;74.23;98674.88;5064917;28;20488;-37
2023/07/24 09:55:29;;;;;;;5.57;3.70;;;;;;;18.79;75.20;98700.38;5063539;28;20722;-39
2023/07/24 09:57:56;;;;;;;7.03;3.67;;;;;;;18.78;75.26;98696.09;5022847;28;20094;-33
2023/07/24 10:00:22;;;;;;;7.13;4.05;;;;;;;18.80;75.95;98686.25;5007738;28;20128;-38
2023/07/24 10:02:48;;;;;;;6.90;3.22;;;;;;;18.59;77.12;98652.00;5000574;28;20534;-37
2023/07/24 10:05:14;;;;;;;4.00;3.22;;;;;;;18.45;77.53;98660.19;5006384;28;20140;-37
2023/07/24 10:07:40;;;;;;;7.65;3.58;;;;;;;18.20;78.99;98658.75;5024200;28;20052;-37
2023/07/24 10:10:07;;;;;;;5.07;3.20;;;;;;;17.96;81.67;98668.63;5005201;28;20091;-37
2023/07/24 10:12:33;;;;;;;4.78;2.72;;;;;;;17.71;84.88;98666.28;5004863;28;20128;-36
2023/07/24 10:15:00;;;;;;;4.47;3.20;;;;;;;17.50;86.84;98665.34;5004098;28;20073;-37
2023/07/24 10:17:40;;;;;;;9.35;3.17;;;;;;;17.02;89.85;98660.31;5009174;28;20034;-36
2023/07/24 10:20:08;;;;;;;8.43;3.90;;;;;;;16.78;92.11;98662.19;5009448;28;20420;-38
2023/07/24 10:22:35;;;;;;;7.20;3.65;;;;;;;16.40;93.84;98630.94;5009026;28;20053;-39
2023/07/24 10:25:01;;;;;;;4.13;3.28;;;;;;;16.30;95.04;98638.66;5024355;28;20060;-37
2023/07/24 10:27:28;;;;;;;6.25;3.60;;;;;;;16.38;96.89;98653.84;5009016;28;20069;-38
2023/07/24 10:30:04;;;;;;;6.20;4.07;;;;;;;16.28;97.52;98658.06;5066263;28;20067;-38
2023/07/24 10:32:31;;;;;;;5.43;2.80;;;;;;;16.21;97.88;98656.84;5063715;28;20058;-37
2023/07/24 10:35:09;;;;;;;4.15;2.72;;;;;;;16.16;98.13;98664.22;5058644;28;20052;-37
2023/07/24 10:37:36;;;;;;;4.85;2.67;;;;;;;16.13;97.96;98670.50;5056591;28;20095;-36
2023/07/24 10:40:04;;;;;;;4.57;2.88;;;;;;;16.15;97.78;98660.75;5064581;28;20036;-36
2023/07/24 10:42:30;;;;;;;5.25;2.90;;;;;;;16.00;97.99;98657.47;5044120;28;20044;-37
2023/07/24 10:45:10;;;;;;;6.32;2.95;;;;;;;16.10;98.98;98661.09;5065739;28;20044;-38
2023/07/24 10:47:36;;;;;;;5.03;2.83;;;;;;;16.19;98.23;98653.50;5023564;28;20039;-37
2023/07/24 10:50:02;;;;;;;6.20;2.92;;;;;;;15.96;97.97;98634.22;5065434;28;20036;-35
2023/07/24 10:52:33;;;;;;;4.85;3.30;;;;;;;15.97;98.31;98648.97;5064862;28;20054;-37
2023/07/24 10:55:03;;;;;;;5.20;2.72;;;;;;;15.98;99.39;98645.41;5063207;28;20044;-38
2023/07/24 10:57:30;;;;;;;6.18;2.95;;;;;;;15.95;99.66;98648.28;5053659;28;20517;-37
2023/07/24 10:59:56;;;;;;;5.82;2.80;;;;;;;15.82;100.00;98616.88;5062667;28;20039;-36
2023/07/24 11:02:23;;;;;;;5.55;2.72;;;;;;;15.88;99.78;98615.59;5059369;28;20591;-39
2023/07/24 11:04:49;;;;;;;4.22;2.90;;;;;;;15.99;99.80;98634.00;5063322;28;20055;-38
2023/07/24 11:07:15;;;;;;;5.00;3.03;;;;;;;16.00;100.00;98635.66;5063238;28;20051;-37
2023/07/24 11:09:41;;;;;;;6.57;3.40;;;;;;;15.79;100.00;98592.69;5059316;28;20040;-38
2023/07/24 11:12:14;;;;;;;7.10;3.50;;;;;;;16.09;100.00;98640.22;5059193;28;20614;-36
2023/07/24 11:14:50;;;;;;;6.80;3.58;;;;;;;16.14;100.00;98632.03;5055347;28;20033;-37
2023/07/24 11:17:16;;;;;;;4.78;3.45;;;;;;;16.13;100.00;98636.44;5063150;28;20523;-38
2023/07/24 11:19:42;;;;;;;8.15;3.33;;;;;;;16.07;100.00;98632.47;5060271;28;20040;-37
2023/07/24 11:22:08;;;;;;;4.60;3.42;;;;;;;15.96;100.00;98592.28;5079664;28;20606;-37
2023/07/24 11:24:42;;;;;;;7.50;4.47;;;;;;;15.96;100.00;98600.16;5060303;28;20052;-38
2023/07/24 11:27:15;;;;;;;7.88;4.65;;;;;;;16.18;100.00;98620.34;5059821;28;20033;-38
2023/07/24 11:29:47;;;;;;;5.18;3.90;;;;;;;16.02;100.00;98590.03;5058503;28;20052;-37